sensor_id;sensor_type;location;lat;lon;timestamp;P1;durP1;ratioP1;P2;durP2;ratioP2
966;SDS011;56108;48.730;9.304;2023-04-15T00:00:51;12.90;;;10.52;;
966;SDS011;56108;48.730;9.304;2023-04-15T00:03:01;10.63;;;9.40;;
966;SDS011;56108;48.730;9.304;2023-04-15T00:05:10;11.85;;;10.65;;
966;SDS011;56108;48.730;9.304;2023-04-15T00:07:18;11.57;;;9.65;;
966;SDS011;56108;48.730;9.304;2023-04-15T00:09:26;13.13;;;10.27;;
966;SDS011;56108;48.730;9.304;2023-04-15T00:11:34;12.30;;;9.85;;
966;SDS011;56108;48.730;9.304;2023-04-15T00:13:42;10.82;;;9.77;;
966;SDS011;56108;48.730;9.304;2023-04-15T00:15:50;12.88;;;10.77;;
966;SDS011;56108;48.730;9.304;2023-04-15T00:17:58;10.27;;;9.27;;
966;SDS011;56108;48.730;9.304;2023-04-15T00:20:10;11.05;;;9.82;;
966;SDS011;56108;48.730;9.304;2023-04-15T00:22:19;12.00;;;9.02;;
966;SDS011;56108;48.730;9.304;2023-04-15T00:24:27;11.23;;;10.02;;
966;SDS011;56108;48.730;9.304;2023-04-15T00:26:36;10.75;;;8.85;;
966;SDS011;56108;48.730;9.304;2023-04-15T00:28:44;13.40;;;11.05;;
966;SDS011;56108;48.730;9.304;2023-04-15T00:30:52;10.77;;;9.77;;
966;SDS011;56108;48.730;9.304;2023-04-15T00:33:01;14.13;;;10.95;;
966;SDS011;56108;48.730;9.304;2023-04-15T00:35:13;12.57;;;11.07;;
966;SDS011;56108;48.730;9.304;2023-04-15T00:37:21;11.00;;;9.90;;
966;SDS011;56108;48.730;9.304;2023-04-15T00:39:29;11.85;;;10.15;;
966;SDS011;56108;48.730;9.304;2023-04-15T00:41:37;9.45;;;8.52;;
966;SDS011;56108;48.730;9.304;2023-04-15T00:43:46;11.20;;;9.35;;
966;SDS011;56108;48.730;9.304;2023-04-15T00:45:54;9.48;;;8.52;;
966;SDS011;56108;48.730;9.304;2023-04-15T00:48:06;11.35;;;9.75;;
966;SDS011;56108;48.730;9.304;2023-04-15T00:50:17;10.60;;;8.75;;
966;SDS011;56108;48.730;9.304;2023-04-15T00:52:25;10.55;;;9.35;;
966;SDS011;56108;48.730;9.304;2023-04-15T00:54:33;9.90;;;8.90;;
966;SDS011;56108;48.730;9.304;2023-04-15T00:56:42;11.43;;;8.52;;
966;SDS011;56108;48.730;9.304;2023-04-15T00:58:50;9.93;;;8.32;;
966;SDS011;56108;48.730;9.304;2023-04-15T01:00:58;9.85;;;8.73;;
966;SDS011;56108;48.730;9.304;2023-04-15T01:03:08;9.30;;;8.30;;
966;SDS011;56108;48.730;9.304;2023-04-15T01:05:18;10.20;;;9.20;;
966;SDS011;56108;48.730;9.304;2023-04-15T01:07:27;11.88;;;8.75;;
966;SDS011;56108;48.730;9.304;2023-04-15T01:09:35;10.75;;;7.55;;
966;SDS011;56108;48.730;9.304;2023-04-15T01:11:43;8.88;;;7.95;;
966;SDS011;56108;48.730;9.304;2023-04-15T01:13:52;9.73;;;8.80;;
966;SDS011;56108;48.730;9.304;2023-04-15T01:16:03;9.80;;;8.80;;
966;SDS011;56108;48.730;9.304;2023-04-15T01:18:13;10.45;;;9.00;;
966;SDS011;56108;48.730;9.304;2023-04-15T01:20:23;10.18;;;8.43;;
966;SDS011;56108;48.730;9.304;2023-04-15T01:22:32;11.77;;;8.90;;
966;SDS011;56108;48.730;9.304;2023-04-15T01:24:44;13.20;;;8.82;;
966;SDS011;56108;48.730;9.304;2023-04-15T01:27:03;11.45;;;9.00;;
966;SDS011;56108;48.730;9.304;2023-04-15T01:29:12;10.10;;;8.50;;
966;SDS011;56108;48.730;9.304;2023-04-15T01:31:20;9.27;;;8.30;;
966;SDS011;56108;48.730;9.304;2023-04-15T01:33:29;9.77;;;8.77;;
966;SDS011;56108;48.730;9.304;2023-04-15T01:35:37;9.82;;;8.82;;
966;SDS011;56108;48.730;9.304;2023-04-15T01:37:47;10.30;;;9.00;;
966;SDS011;56108;48.730;9.304;2023-04-15T01:39:56;12.05;;;9.15;;
966;SDS011;56108;48.730;9.304;2023-04-15T01:42:07;10.52;;;9.40;;
966;SDS011;56108;48.730;9.304;2023-04-15T01:44:15;9.68;;;8.68;;
966;SDS011;56108;48.730;9.304;2023-04-15T01:46:23;11.15;;;8.90;;
966;SDS011;56108;48.730;9.304;2023-04-15T01:48:31;13.23;;;9.98;;
966;SDS011;56108;48.730;9.304;2023-04-15T01:50:40;10.57;;;8.85;;
966;SDS011;56108;48.730;9.304;2023-04-15T01:52:48;10.15;;;9.15;;
966;SDS011;56108;48.730;9.304;2023-04-15T01:54:56;12.50;;;9.30;;
966;SDS011;56108;48.730;9.304;2023-04-15T01:57:07;10.90;;;9.80;;
966;SDS011;56108;48.730;9.304;2023-04-15T01:59:15;11.30;;;9.80;;
966;SDS011;56108;48.730;9.304;2023-04-15T02:01:23;10.60;;;8.55;;
966;SDS011;56108;48.730;9.304;2023-04-15T02:03:32;9.63;;;8.73;;
966;SDS011;56108;48.730;9.304;2023-04-15T02:05:41;10.07;;;8.95;;
966;SDS011;56108;48.730;9.304;2023-04-15T02:07:49;12.63;;;9.60;;
966;SDS011;56108;48.730;9.304;2023-04-15T02:09:57;10.80;;;9.32;;
966;SDS011;56108;48.730;9.304;2023-04-15T02:12:08;10.45;;;9.10;;
966;SDS011;56108;48.730;9.304;2023-04-15T02:14:17;10.80;;;9.75;;
966;SDS011;56108;48.730;9.304;2023-04-15T02:16:25;12.15;;;9.35;;
966;SDS011;56108;48.730;9.304;2023-04-15T02:18:33;10.32;;;8.40;;
966;SDS011;56108;48.730;9.304;2023-04-15T02:20:41;10.80;;;9.45;;
966;SDS011;56108;48.730;9.304;2023-04-15T02:22:50;8.93;;;8.13;;
966;SDS011;56108;48.730;9.304;2023-04-15T02:24:58;11.20;;;8.80;;
966;SDS011;56108;48.730;9.304;2023-04-15T02:27:12;11.05;;;9.02;;
966;SDS011;56108;48.730;9.304;2023-04-15T02:29:22;10.80;;;9.38;;
966;SDS011;56108;48.730;9.304;2023-04-15T02:31:34;9.10;;;8.20;;
966;SDS011;56108;48.730;9.304;2023-04-15T02:33:50;9.18;;;8.27;;
966;SDS011;56108;48.730;9.304;2023-04-15T02:35:58;14.90;;;8.80;;
966;SDS011;56108;48.730;9.304;2023-04-15T02:38:06;11.25;;;8.00;;
966;SDS011;56108;48.730;9.304;2023-04-15T02:40:15;11.45;;;10.25;;
966;SDS011;56108;48.730;9.304;2023-04-15T02:42:25;14.30;;;9.02;;
966;SDS011;56108;48.730;9.304;2023-04-15T02:44:36;11.75;;;9.15;;
966;SDS011;56108;48.730;9.304;2023-04-15T02:46:44;10.38;;;9.20;;
966;SDS011;56108;48.730;9.304;2023-04-15T02:48:57;9.48;;;7.70;;
966;SDS011;56108;48.730;9.304;2023-04-15T02:51:10;12.93;;;9.27;;
966;SDS011;56108;48.730;9.304;2023-04-15T02:53:19;10.40;;;9.20;;
966;SDS011;56108;48.730;9.304;2023-04-15T02:55:27;8.75;;;7.75;;
966;SDS011;56108;48.730;9.304;2023-04-15T02:57:38;9.70;;;8.75;;
966;SDS011;56108;48.730;9.304;2023-04-15T02:59:47;9.75;;;8.85;;
966;SDS011;56108;48.730;9.304;2023-04-15T03:01:56;9.95;;;8.95;;
966;SDS011;56108;48.730;9.304;2023-04-15T03:04:04;12.57;;;9.48;;
966;SDS011;56108;48.730;9.304;2023-04-15T03:06:13;14.32;;;9.15;;
966;SDS011;56108;48.730;9.304;2023-04-15T03:08:22;10.15;;;9.07;;
966;SDS011;56108;48.730;9.304;2023-04-15T03:10:33;10.27;;;8.52;;
966;SDS011;56108;48.730;9.304;2023-04-15T03:12:44;12.55;;;9.70;;
966;SDS011;56108;48.730;9.304;2023-04-15T03:14:57;13.93;;;9.15;;
966;SDS011;56108;48.730;9.304;2023-04-15T03:17:12;8.77;;;7.88;;
966;SDS011;56108;48.730;9.304;2023-04-15T03:19:21;9.32;;;8.43;;
966;SDS011;56108;48.730;9.304;2023-04-15T03:21:29;9.05;;;7.88;;
966;SDS011;56108;48.730;9.304;2023-04-15T03:23:37;8.98;;;8.15;;
966;SDS011;56108;48.730;9.304;2023-04-15T03:25:45;10.68;;;8.43;;
966;SDS011;56108;48.730;9.304;2023-04-15T03:27:56;9.52;;;7.47;;
966;SDS011;56108;48.730;9.304;2023-04-15T03:30:06;11.38;;;8.13;;
966;SDS011;56108;48.730;9.304;2023-04-15T03:32:17;10.73;;;8.02;;
966;SDS011;56108;48.730;9.304;2023-04-15T03:34:25;8.27;;;7.05;;
966;SDS011;56108;48.730;9.304;2023-04-15T03:36:33;8.32;;;7.53;;
966;SDS011;56108;48.730;9.304;2023-04-15T03:38:41;13.05;;;8.43;;
966;SDS011;56108;48.730;9.304;2023-04-15T03:40:50;9.50;;;8.38;;
966;SDS011;56108;48.730;9.304;2023-04-15T03:43:01;10.45;;;9.35;;
966;SDS011;56108;48.730;9.304;2023-04-15T03:45:09;9.80;;;8.48;;
966;SDS011;56108;48.730;9.304;2023-04-15T03:47:18;9.93;;;9.00;;
966;SDS011;56108;48.730;9.304;2023-04-15T03:49:26;12.10;;;9.23;;
966;SDS011;56108;48.730;9.304;2023-04-15T03:51:34;10.55;;;8.70;;
966;SDS011;56108;48.730;9.304;2023-04-15T03:53:42;10.52;;;9.30;;
966;SDS011;56108;48.730;9.304;2023-04-15T03:55:50;9.90;;;8.90;;
966;SDS011;56108;48.730;9.304;2023-04-15T03:58:01;10.23;;;8.98;;
966;SDS011;56108;48.730;9.304;2023-04-15T04:00:09;11.10;;;9.77;;
966;SDS011;56108;48.730;9.304;2023-04-15T04:02:19;11.95;;;9.25;;
966;SDS011;56108;48.730;9.304;2023-04-15T04:04:28;15.07;;;9.82;;
966;SDS011;56108;48.730;9.304;2023-04-15T04:06:36;9.35;;;8.45;;
966;SDS011;56108;48.730;9.304;2023-04-15T04:08:44;12.57;;;10.13;;
966;SDS011;56108;48.730;9.304;2023-04-15T04:10:52;14.35;;;9.00;;
966;SDS011;56108;48.730;9.304;2023-04-15T04:13:03;11.95;;;9.88;;
966;SDS011;56108;48.730;9.304;2023-04-15T04:15:11;13.20;;;10.05;;
966;SDS011;56108;48.730;9.304;2023-04-15T04:17:19;10.60;;;9.20;;
966;SDS011;56108;48.730;9.304;2023-04-15T04:19:27;12.85;;;9.88;;
966;SDS011;56108;48.730;9.304;2023-04-15T04:21:35;12.93;;;9.85;;
966;SDS011;56108;48.730;9.304;2023-04-15T04:23:44;12.85;;;10.18;;
966;SDS011;56108;48.730;9.304;2023-04-15T04:25:52;10.23;;;9.13;;
966;SDS011;56108;48.730;9.304;2023-04-15T04:28:04;10.90;;;8.88;;
966;SDS011;56108;48.730;9.304;2023-04-15T04:30:12;10.00;;;8.38;;
966;SDS011;56108;48.730;9.304;2023-04-15T04:32:21;10.65;;;8.85;;
966;SDS011;56108;48.730;9.304;2023-04-15T04:34:29;11.98;;;9.85;;
966;SDS011;56108;48.730;9.304;2023-04-15T04:36:37;8.50;;;7.75;;
966;SDS011;56108;48.730;9.304;2023-04-15T04:38:45;13.93;;;9.00;;
966;SDS011;56108;48.730;9.304;2023-04-15T04:40:53;9.95;;;8.98;;
966;SDS011;56108;48.730;9.304;2023-04-15T04:43:04;8.43;;;7.55;;
966;SDS011;56108;48.730;9.304;2023-04-15T04:45:13;11.50;;;9.48;;
966;SDS011;56108;48.730;9.304;2023-04-15T04:47:21;10.00;;;8.90;;
966;SDS011;56108;48.730;9.304;2023-04-15T04:49:29;10.00;;;8.32;;
966;SDS011;56108;48.730;9.304;2023-04-15T04:51:37;10.02;;;8.60;;
966;SDS011;56108;48.730;9.304;2023-04-15T04:53:45;13.85;;;9.77;;
966;SDS011;56108;48.730;9.304;2023-04-15T04:55:53;10.82;;;8.95;;
966;SDS011;56108;48.730;9.304;2023-04-15T04:58:04;8.98;;;8.07;;
966;SDS011;56108;48.730;9.304;2023-04-15T05:00:15;9.90;;;8.82;;
966;SDS011;56108;48.730;9.304;2023-04-15T05:02:24;10.00;;;8.45;;
966;SDS011;56108;48.730;9.304;2023-04-15T05:04:32;10.38;;;9.25;;
966;SDS011;56108;48.730;9.304;2023-04-15T05:06:40;9.05;;;8.15;;
966;SDS011;56108;48.730;9.304;2023-04-15T05:08:48;11.00;;;9.55;;
966;SDS011;56108;48.730;9.304;2023-04-15T05:10:57;13.43;;;9.10;;
966;SDS011;56108;48.730;9.304;2023-04-15T05:13:07;15.18;;;8.20;;
966;SDS011;56108;48.730;9.304;2023-04-15T05:15:16;9.80;;;8.77;;
966;SDS011;56108;48.730;9.304;2023-04-15T05:17:25;11.10;;;8.05;;
966;SDS011;56108;48.730;9.304;2023-04-15T05:19:35;10.65;;;8.02;;
966;SDS011;56108;48.730;9.304;2023-04-15T05:21:43;9.77;;;8.05;;
966;SDS011;56108;48.730;9.304;2023-04-15T05:23:51;9.73;;;8.20;;
966;SDS011;56108;48.730;9.304;2023-04-15T05:26:00;9.85;;;8.82;;
966;SDS011;56108;48.730;9.304;2023-04-15T05:28:10;10.98;;;8.07;;
966;SDS011;56108;48.730;9.304;2023-04-15T05:30:19;11.05;;;8.23;;
966;SDS011;56108;48.730;9.304;2023-04-15T05:32:27;8.88;;;8.07;;
966;SDS011;56108;48.730;9.304;2023-04-15T05:34:35;10.32;;;8.43;;
966;SDS011;56108;48.730;9.304;2023-04-15T05:36:43;9.77;;;8.15;;
966;SDS011;56108;48.730;9.304;2023-04-15T05:38:51;9.60;;;7.13;;
966;SDS011;56108;48.730;9.304;2023-04-15T05:40:59;8.48;;;7.50;;
966;SDS011;56108;48.730;9.304;2023-04-15T05:43:09;9.82;;;8.30;;
966;SDS011;56108;48.730;9.304;2023-04-15T05:45:17;11.63;;;8.15;;
966;SDS011;56108;48.730;9.304;2023-04-15T05:47:26;8.65;;;7.05;;
966;SDS011;56108;48.730;9.304;2023-04-15T05:49:34;8.75;;;7.55;;
966;SDS011;56108;48.730;9.304;2023-04-15T05:51:42;8.30;;;7.28;;
966;SDS011;56108;48.730;9.304;2023-04-15T05:53:50;7.60;;;6.97;;
966;SDS011;56108;48.730;9.304;2023-04-15T05:55:58;8.48;;;7.72;;
966;SDS011;56108;48.730;9.304;2023-04-15T05:58:06;12.23;;;7.63;;
966;SDS011;56108;48.730;9.304;2023-04-15T06:00:18;7.95;;;7.22;;
966;SDS011;56108;48.730;9.304;2023-04-15T06:02:26;8.00;;;6.90;;
966;SDS011;56108;48.730;9.304;2023-04-15T06:04:35;8.23;;;6.65;;
966;SDS011;56108;48.730;9.304;2023-04-15T06:06:44;6.25;;;5.65;;
966;SDS011;56108;48.730;9.304;2023-04-15T06:08:52;6.05;;;5.55;;
966;SDS011;56108;48.730;9.304;2023-04-15T06:11:01;7.57;;;6.88;;
966;SDS011;56108;48.730;9.304;2023-04-15T06:13:09;6.65;;;6.05;;
966;SDS011;56108;48.730;9.304;2023-04-15T06:15:20;7.20;;;6.57;;
966;SDS011;56108;48.730;9.304;2023-04-15T06:17:28;7.45;;;6.53;;
966;SDS011;56108;48.730;9.304;2023-04-15T06:19:36;7.13;;;6.53;;
966;SDS011;56108;48.730;9.304;2023-04-15T06:21:44;7.00;;;6.30;;
966;SDS011;56108;48.730;9.304;2023-04-15T06:23:52;6.90;;;6.20;;
966;SDS011;56108;48.730;9.304;2023-04-15T06:26:00;7.10;;;6.53;;
966;SDS011;56108;48.730;9.304;2023-04-15T06:28:08;8.15;;;7.45;;
966;SDS011;56108;48.730;9.304;2023-04-15T06:30:16;6.70;;;6.00;;
966;SDS011;56108;48.730;9.304;2023-04-15T06:32:30;7.20;;;6.50;;
966;SDS011;56108;48.730;9.304;2023-04-15T06:34:39;7.00;;;6.32;;
966;SDS011;56108;48.730;9.304;2023-04-15T06:36:46;7.32;;;6.00;;
966;SDS011;56108;48.730;9.304;2023-04-15T06:38:58;6.97;;;5.80;;
966;SDS011;56108;48.730;9.304;2023-04-15T06:41:07;6.80;;;6.15;;
966;SDS011;56108;48.730;9.304;2023-04-15T06:43:15;9.25;;;6.85;;
966;SDS011;56108;48.730;9.304;2023-04-15T06:45:23;6.75;;;6.15;;
966;SDS011;56108;48.730;9.304;2023-04-15T06:47:34;8.07;;;7.05;;
966;SDS011;56108;48.730;9.304;2023-04-15T06:49:44;6.85;;;6.15;;
966;SDS011;56108;48.730;9.304;2023-04-15T06:51:52;7.00;;;6.40;;
966;SDS011;56108;48.730;9.304;2023-04-15T06:54:00;8.88;;;6.50;;
966;SDS011;56108;48.730;9.304;2023-04-15T06:56:09;7.32;;;6.57;;
966;SDS011;56108;48.730;9.304;2023-04-15T06:58:17;7.22;;;6.57;;
966;SDS011;56108;48.730;9.304;2023-04-15T07:00:25;6.55;;;5.95;;
966;SDS011;56108;48.730;9.304;2023-04-15T07:02:40;6.72;;;6.13;;
966;SDS011;56108;48.730;9.304;2023-04-15T07:04:48;6.78;;;6.18;;
966;SDS011;56108;48.730;9.304;2023-04-15T07:06:56;7.30;;;6.70;;
966;SDS011;56108;48.730;9.304;2023-04-15T07:09:06;6.55;;;5.97;;
966;SDS011;56108;48.730;9.304;2023-04-15T07:11:14;7.15;;;6.55;;
966;SDS011;56108;48.730;9.304;2023-04-15T07:13:22;7.30;;;5.90;;
966;SDS011;56108;48.730;9.304;2023-04-15T07:15:30;6.30;;;5.70;;
966;SDS011;56108;48.730;9.304;2023-04-15T07:17:41;8.27;;;6.05;;
966;SDS011;56108;48.730;9.304;2023-04-15T07:19:49;6.20;;;5.65;;
966;SDS011;56108;48.730;9.304;2023-04-15T07:21:57;7.78;;;5.90;;
966;SDS011;56108;48.730;9.304;2023-04-15T07:24:05;6.93;;;6.32;;
966;SDS011;56108;48.730;9.304;2023-04-15T07:26:14;9.43;;;6.47;;
966;SDS011;56108;48.730;9.304;2023-04-15T07:28:22;9.20;;;7.35;;
966;SDS011;56108;48.730;9.304;2023-04-15T07:30:30;8.00;;;7.20;;
966;SDS011;56108;48.730;9.304;2023-04-15T07:32:42;9.75;;;8.60;;
966;SDS011;56108;48.730;9.304;2023-04-15T07:34:50;9.18;;;8.00;;
966;SDS011;56108;48.730;9.304;2023-04-15T07:36:58;8.63;;;7.82;;
966;SDS011;56108;48.730;9.304;2023-04-15T07:39:07;8.60;;;7.70;;
966;SDS011;56108;48.730;9.304;2023-04-15T07:41:15;7.55;;;6.82;;
966;SDS011;56108;48.730;9.304;2023-04-15T07:43:24;8.82;;;7.93;;
966;SDS011;56108;48.730;9.304;2023-04-15T07:45:32;10.38;;;7.43;;
966;SDS011;56108;48.730;9.304;2023-04-15T07:47:42;7.22;;;6.63;;
966;SDS011;56108;48.730;9.304;2023-04-15T07:49:51;9.93;;;7.45;;
966;SDS011;56108;48.730;9.304;2023-04-15T07:51:59;7.97;;;6.82;;
966;SDS011;56108;48.730;9.304;2023-04-15T07:54:09;7.20;;;6.50;;
966;SDS011;56108;48.730;9.304;2023-04-15T07:56:17;7.45;;;6.85;;
966;SDS011;56108;48.730;9.304;2023-04-15T07:58:25;7.97;;;7.28;;
966;SDS011;56108;48.730;9.304;2023-04-15T08:00:34;8.25;;;7.43;;
966;SDS011;56108;48.730;9.304;2023-04-15T08:02:44;8.30;;;7.07;;
966;SDS011;56108;48.730;9.304;2023-04-15T08:04:53;10.05;;;9.15;;
966;SDS011;56108;48.730;9.304;2023-04-15T08:07:01;8.02;;;7.28;;
966;SDS011;56108;48.730;9.304;2023-04-15T08:09:10;8.43;;;7.63;;
966;SDS011;56108;48.730;9.304;2023-04-15T08:11:18;8.13;;;7.20;;
966;SDS011;56108;48.730;9.304;2023-04-15T08:13:27;8.20;;;7.40;;
966;SDS011;56108;48.730;9.304;2023-04-15T08:15:35;7.80;;;7.10;;
966;SDS011;56108;48.730;9.304;2023-04-15T08:17:45;8.40;;;7.22;;
966;SDS011;56108;48.730;9.304;2023-04-15T08:19:54;8.02;;;7.28;;
966;SDS011;56108;48.730;9.304;2023-04-15T08:22:02;7.72;;;6.75;;
966;SDS011;56108;48.730;9.304;2023-04-15T08:24:18;7.93;;;7.22;;
966;SDS011;56108;48.730;9.304;2023-04-15T08:26:26;8.57;;;7.78;;
966;SDS011;56108;48.730;9.304;2023-04-15T08:28:35;8.00;;;7.30;;
966;SDS011;56108;48.730;9.304;2023-04-15T08:30:44;7.55;;;6.55;;
966;SDS011;56108;48.730;9.304;2023-04-15T08:32:55;8.00;;;7.30;;
966;SDS011;56108;48.730;9.304;2023-04-15T08:35:03;7.78;;;6.97;;
966;SDS011;56108;48.730;9.304;2023-04-15T08:37:12;9.93;;;7.43;;
966;SDS011;56108;48.730;9.304;2023-04-15T08:39:20;11.57;;;7.50;;
966;SDS011;56108;48.730;9.304;2023-04-15T08:41:30;9.48;;;7.60;;
966;SDS011;56108;48.730;9.304;2023-04-15T08:43:48;9.80;;;6.85;;
966;SDS011;56108;48.730;9.304;2023-04-15T08:45:59;7.22;;;6.53;;
966;SDS011;56108;48.730;9.304;2023-04-15T08:48:11;7.40;;;6.70;;
966;SDS011;56108;48.730;9.304;2023-04-15T08:50:23;10.23;;;7.18;;
966;SDS011;56108;48.730;9.304;2023-04-15T08:52:33;7.65;;;5.88;;
966;SDS011;56108;48.730;9.304;2023-04-15T08:54:41;6.20;;;5.25;;
966;SDS011;56108;48.730;9.304;2023-04-15T08:56:49;5.25;;;4.75;;
966;SDS011;56108;48.730;9.304;2023-04-15T08:58:57;5.55;;;5.05;;
966;SDS011;56108;48.730;9.304;2023-04-15T09:01:06;4.45;;;4.10;;
966;SDS011;56108;48.730;9.304;2023-04-15T09:03:16;4.38;;;3.92;;
966;SDS011;56108;48.730;9.304;2023-04-15T09:05:26;6.18;;;4.15;;
966;SDS011;56108;48.730;9.304;2023-04-15T09:07:37;6.50;;;4.40;;
966;SDS011;56108;48.730;9.304;2023-04-15T09:09:45;6.18;;;4.20;;
966;SDS011;56108;48.730;9.304;2023-04-15T09:11:55;5.38;;;4.57;;
966;SDS011;56108;48.730;9.304;2023-04-15T09:14:03;4.65;;;4.25;;
966;SDS011;56108;48.730;9.304;2023-04-15T09:16:12;5.00;;;4.50;;
966;SDS011;56108;48.730;9.304;2023-04-15T09:18:29;7.07;;;5.35;;
966;SDS011;56108;48.730;9.304;2023-04-15T09:20:38;5.20;;;4.70;;
966;SDS011;56108;48.730;9.304;2023-04-15T09:22:48;4.40;;;3.97;;
966;SDS011;56108;48.730;9.304;2023-04-15T09:24:56;4.53;;;4.00;;
966;SDS011;56108;48.730;9.304;2023-04-15T09:27:05;4.40;;;4.00;;
966;SDS011;56108;48.730;9.304;2023-04-15T09:29:13;5.00;;;4.60;;
966;SDS011;56108;48.730;9.304;2023-04-15T09:31:25;6.50;;;4.30;;
966;SDS011;56108;48.730;9.304;2023-04-15T09:33:52;4.90;;;4.40;;
966;SDS011;56108;48.730;9.304;2023-04-15T09:36:02;4.32;;;3.95;;
966;SDS011;56108;48.730;9.304;2023-04-15T09:38:12;3.60;;;3.30;;
966;SDS011;56108;48.730;9.304;2023-04-15T09:40:32;4.75;;;4.35;;
966;SDS011;56108;48.730;9.304;2023-04-15T09:42:53;4.38;;;4.05;;
966;SDS011;56108;48.730;9.304;2023-04-15T09:45:08;4.88;;;4.47;;
966;SDS011;56108;48.730;9.304;2023-04-15T09:47:27;4.78;;;4.38;;
966;SDS011;56108;48.730;9.304;2023-04-15T09:49:38;5.45;;;4.65;;
966;SDS011;56108;48.730;9.304;2023-04-15T09:52:02;4.55;;;4.13;;
966;SDS011;56108;48.730;9.304;2023-04-15T09:54:11;5.32;;;4.53;;
966;SDS011;56108;48.730;9.304;2023-04-15T09:56:19;4.70;;;4.30;;
966;SDS011;56108;48.730;9.304;2023-04-15T09:58:30;4.95;;;4.65;;
966;SDS011;56108;48.730;9.304;2023-04-15T10:00:40;5.60;;;5.10;;
966;SDS011;56108;48.730;9.304;2023-04-15T10:02:48;7.32;;;5.03;;
966;SDS011;56108;48.730;9.304;2023-04-15T10:05:00;6.22;;;5.15;;
966;SDS011;56108;48.730;9.304;2023-04-15T10:07:09;4.90;;;4.60;;
966;SDS011;56108;48.730;9.304;2023-04-15T10:09:18;5.22;;;4.50;;
966;SDS011;56108;48.730;9.304;2023-04-15T10:11:27;6.35;;;4.63;;
966;SDS011;56108;48.730;9.304;2023-04-15T10:13:36;5.10;;;4.70;;
966;SDS011;56108;48.730;9.304;2023-04-15T10:15:48;5.25;;;4.75;;
966;SDS011;56108;48.730;9.304;2023-04-15T10:17:58;4.85;;;4.18;;
966;SDS011;56108;48.730;9.304;2023-04-15T10:20:11;5.53;;;5.00;;
966;SDS011;56108;48.730;9.304;2023-04-15T10:22:21;5.63;;;5.03;;
966;SDS011;56108;48.730;9.304;2023-04-15T10:24:31;5.03;;;4.55;;
966;SDS011;56108;48.730;9.304;2023-04-15T10:26:40;4.63;;;4.22;;
966;SDS011;56108;48.730;9.304;2023-04-15T10:28:49;4.70;;;4.18;;
966;SDS011;56108;48.730;9.304;2023-04-15T10:31:01;3.80;;;3.50;;
966;SDS011;56108;48.730;9.304;2023-04-15T10:33:11;3.63;;;3.33;;
966;SDS011;56108;48.730;9.304;2023-04-15T10:35:23;3.20;;;3.00;;
966;SDS011;56108;48.730;9.304;2023-04-15T10:37:33;3.35;;;3.15;;
966;SDS011;56108;48.730;9.304;2023-04-15T10:39:43;5.32;;;4.82;;
966;SDS011;56108;48.730;9.304;2023-04-15T10:42:03;4.13;;;3.72;;
966;SDS011;56108;48.730;9.304;2023-04-15T10:44:13;4.30;;;3.90;;
966;SDS011;56108;48.730;9.304;2023-04-15T10:46:22;4.43;;;4.13;;
966;SDS011;56108;48.730;9.304;2023-04-15T10:48:45;4.60;;;4.20;;
966;SDS011;56108;48.730;9.304;2023-04-15T10:50:58;4.50;;;4.10;;
966;SDS011;56108;48.730;9.304;2023-04-15T10:53:09;4.57;;;4.18;;
966;SDS011;56108;48.730;9.304;2023-04-15T10:55:18;4.72;;;4.25;;
966;SDS011;56108;48.730;9.304;2023-04-15T10:57:28;5.68;;;5.00;;
966;SDS011;56108;48.730;9.304;2023-04-15T11:02:11;4.95;;;3.60;;
966;SDS011;56108;48.730;9.304;2023-04-15T11:07:06;3.90;;;3.60;;
966;SDS011;56108;48.730;9.304;2023-04-15T11:09:29;3.55;;;3.25;;
966;SDS011;56108;48.730;9.304;2023-04-15T11:14:14;5.07;;;4.38;;
966;SDS011;56108;48.730;9.304;2023-04-15T11:16:23;4.80;;;4.40;;
966;SDS011;56108;48.730;9.304;2023-04-15T11:18:32;5.50;;;5.00;;
966;SDS011;56108;48.730;9.304;2023-04-15T11:20:42;5.50;;;5.10;;
966;SDS011;56108;48.730;9.304;2023-04-15T11:22:55;4.85;;;4.40;;
966;SDS011;56108;48.730;9.304;2023-04-15T11:25:22;5.43;;;5.00;;
966;SDS011;56108;48.730;9.304;2023-04-15T11:27:30;4.93;;;4.53;;
966;SDS011;56108;48.730;9.304;2023-04-15T11:29:38;5.15;;;4.57;;
966;SDS011;56108;48.730;9.304;2023-04-15T11:31:46;5.38;;;4.93;;
966;SDS011;56108;48.730;9.304;2023-04-15T11:33:55;5.85;;;5.05;;
966;SDS011;56108;48.730;9.304;2023-04-15T11:36:07;4.82;;;4.43;;
966;SDS011;56108;48.730;9.304;2023-04-15T11:38:21;5.70;;;5.20;;
966;SDS011;56108;48.730;9.304;2023-04-15T11:40:29;6.82;;;5.80;;
966;SDS011;56108;48.730;9.304;2023-04-15T11:42:37;6.93;;;6.00;;
966;SDS011;56108;48.730;9.304;2023-04-15T11:45:04;7.03;;;5.90;;
966;SDS011;56108;48.730;9.304;2023-04-15T11:47:22;5.10;;;4.70;;
966;SDS011;56108;48.730;9.304;2023-04-15T11:49:31;5.57;;;5.05;;
966;SDS011;56108;48.730;9.304;2023-04-15T11:51:42;5.88;;;5.47;;
966;SDS011;56108;48.730;9.304;2023-04-15T11:53:52;6.05;;;5.55;;
966;SDS011;56108;48.730;9.304;2023-04-15T11:56:00;5.63;;;5.10;;
966;SDS011;56108;48.730;9.304;2023-04-15T11:58:09;8.27;;;5.43;;
966;SDS011;56108;48.730;9.304;2023-04-15T12:00:20;6.40;;;5.72;;
966;SDS011;56108;48.730;9.304;2023-04-15T12:02:29;5.70;;;5.10;;
966;SDS011;56108;48.730;9.304;2023-04-15T12:04:38;7.05;;;6.35;;
966;SDS011;56108;48.730;9.304;2023-04-15T12:06:47;7.30;;;5.78;;
966;SDS011;56108;48.730;9.304;2023-04-15T12:09:02;6.43;;;5.88;;
966;SDS011;56108;48.730;9.304;2023-04-15T12:11:13;10.20;;;7.00;;
966;SDS011;56108;48.730;9.304;2023-04-15T12:13:22;8.95;;;7.05;;
966;SDS011;56108;48.730;9.304;2023-04-15T12:15:30;7.30;;;6.60;;
966;SDS011;56108;48.730;9.304;2023-04-15T12:17:39;7.60;;;7.00;;
966;SDS011;56108;48.730;9.304;2023-04-15T12:19:55;9.68;;;6.90;;
966;SDS011;56108;48.730;9.304;2023-04-15T12:22:04;7.63;;;6.07;;
966;SDS011;56108;48.730;9.304;2023-04-15T12:24:18;6.55;;;5.95;;
966;SDS011;56108;48.730;9.304;2023-04-15T12:26:28;7.45;;;6.75;;
966;SDS011;56108;48.730;9.304;2023-04-15T12:28:39;8.45;;;6.85;;
966;SDS011;56108;48.730;9.304;2023-04-15T12:30:47;7.35;;;5.40;;
966;SDS011;56108;48.730;9.304;2023-04-15T12:32:57;6.25;;;5.65;;
966;SDS011;56108;48.730;9.304;2023-04-15T12:35:06;6.97;;;5.45;;
966;SDS011;56108;48.730;9.304;2023-04-15T12:37:15;6.07;;;5.60;;
966;SDS011;56108;48.730;9.304;2023-04-15T12:39:26;7.72;;;5.82;;
966;SDS011;56108;48.730;9.304;2023-04-15T12:41:36;6.75;;;6.15;;
966;SDS011;56108;48.730;9.304;2023-04-15T12:43:44;6.95;;;6.38;;
966;SDS011;56108;48.730;9.304;2023-04-15T12:45:53;7.30;;;6.60;;
966;SDS011;56108;48.730;9.304;2023-04-15T12:48:03;7.68;;;7.07;;
966;SDS011;56108;48.730;9.304;2023-04-15T12:50:12;9.52;;;8.52;;
966;SDS011;56108;48.730;9.304;2023-04-15T12:52:22;8.13;;;7.25;;
966;SDS011;56108;48.730;9.304;2023-04-15T12:54:33;10.15;;;7.60;;
966;SDS011;56108;48.730;9.304;2023-04-15T12:56:44;7.65;;;6.85;;
966;SDS011;56108;48.730;9.304;2023-04-15T12:58:53;7.97;;;7.28;;
966;SDS011;56108;48.730;9.304;2023-04-15T13:01:02;7.47;;;6.72;;
966;SDS011;56108;48.730;9.304;2023-04-15T13:03:10;7.95;;;6.22;;
966;SDS011;56108;48.730;9.304;2023-04-15T13:05:18;7.47;;;6.85;;
966;SDS011;56108;48.730;9.304;2023-04-15T13:07:26;7.78;;;6.97;;
966;SDS011;56108;48.730;9.304;2023-04-15T13:09:37;7.90;;;7.20;;
966;SDS011;56108;48.730;9.304;2023-04-15T13:11:46;7.93;;;7.22;;
966;SDS011;56108;48.730;9.304;2023-04-15T13:13:54;8.00;;;7.30;;
966;SDS011;56108;48.730;9.304;2023-04-15T13:16:03;8.35;;;6.93;;
966;SDS011;56108;48.730;9.304;2023-04-15T13:18:12;6.90;;;6.32;;
966;SDS011;56108;48.730;9.304;2023-04-15T13:20:20;6.97;;;6.45;;
966;SDS011;56108;48.730;9.304;2023-04-15T13:22:28;5.53;;;5.10;;
966;SDS011;56108;48.730;9.304;2023-04-15T13:24:39;5.90;;;5.32;;
966;SDS011;56108;48.730;9.304;2023-04-15T13:26:47;6.05;;;5.32;;
966;SDS011;56108;48.730;9.304;2023-04-15T13:28:55;5.80;;;5.30;;